createdAt,value
2022-09-18T00:01:20.782Z,99523.25
2022-09-18T00:04:24.093Z,99520.09
2022-09-18T00:07:26.653Z,99534.56
2022-09-18T00:10:44.692Z,99535.03
2022-09-18T00:13:47.290Z,99537.19
2022-09-18T00:16:51.137Z,99531.75
2022-09-18T00:19:56.663Z,99528.81
2022-09-18T00:22:59.498Z,99529.84
2022-09-18T00:26:02.552Z,99529.66
2022-09-18T00:29:05.809Z,99535.63
2022-09-18T00:32:08.545Z,99534.78
2022-09-18T00:35:11.343Z,99535.78
2022-09-18T00:38:14.072Z,99538.38
2022-09-18T00:41:25.597Z,99551.34
2022-09-18T00:44:35.822Z,99544.31
2022-09-18T00:47:44.584Z,99540.03
2022-09-18T00:50:47.050Z,99526.56
2022-09-18T00:54:17.117Z,99527.81
2022-09-18T00:57:26.072Z,99531.53
2022-09-18T01:00:29.869Z,99541.31
2022-09-18T01:03:32.393Z,99541.22
2022-09-18T01:06:44.093Z,99542.97
2022-09-18T01:10:12.413Z,99534.81
2022-09-18T01:13:25.626Z,99535.47
2022-09-18T01:16:56.501Z,99534.91
2022-09-18T01:20:29.945Z,99543.69
2022-09-18T01:23:56.947Z,99539.03
2022-09-18T01:27:05.617Z,99547.38
2022-09-18T01:30:09.551Z,99550.38
2022-09-18T01:33:25.839Z,99552.31
2022-09-18T01:36:32.882Z,99547.41
2022-09-18T01:39:49.991Z,99553.88
2022-09-18T01:42:56.414Z,99554.34
2022-09-18T01:46:04.434Z,99556.03
2022-09-18T01:49:13.548Z,99558.94
2022-09-18T01:52:38.187Z,99563.25
2022-09-18T01:55:45.243Z,99555.41
2022-09-18T01:58:51.192Z,99565.94
2022-09-18T02:01:59.576Z,99565.00
2022-09-18T02:05:07.594Z,99577.97
2022-09-18T02:08:16.628Z,99582.56
2022-09-18T02:11:21.382Z,99597.06
2022-09-18T02:14:34.695Z,99589.34
2022-09-18T02:17:53.310Z,99601.78
2022-09-18T02:21:02.472Z,99612.16
2022-09-18T02:24:09.183Z,99604.47
2022-09-18T02:27:15.353Z,99614.06
2022-09-18T02:30:18.649Z,99617.75
2022-09-18T02:33:28.579Z,99636.19
2022-09-18T02:37:02.518Z,99633.78
2022-09-18T02:40:38.568Z,99630.09
2022-09-18T02:43:49.288Z,99635.94
2022-09-18T02:46:57.976Z,99629.25
2022-09-18T02:50:20.507Z,99636.00
2022-09-18T02:53:48.954Z,99643.41
2022-09-18T02:57:01.364Z,99629.38
2022-09-18T03:00:07.013Z,99636.88
2022-09-18T03:03:15.457Z,99640.22
2022-09-18T03:06:18.607Z,99642.22
2022-09-18T03:09:22.340Z,99643.81
2022-09-18T03:12:24.883Z,99633.81
2022-09-18T03:15:27.648Z,99648.94
2022-09-18T03:18:30.251Z,99644.06
2022-09-18T03:21:34.712Z,99645.88
2022-09-18T03:24:39.353Z,99651.44
2022-09-18T03:27:43.054Z,99651.50
2022-09-18T03:30:46.532Z,99652.59
2022-09-18T03:33:49.401Z,99660.44
2022-09-18T03:36:52.332Z,99677.84
2022-09-18T03:39:55.348Z,99667.59
2022-09-18T03:42:57.926Z,99665.69
2022-09-18T03:46:01.742Z,99665.84
2022-09-18T03:49:04.702Z,99670.19
2022-09-18T03:52:08.841Z,99683.66
2022-09-18T03:55:12.859Z,99677.94
2022-09-18T03:58:16.201Z,99690.72
2022-09-18T04:01:19.601Z,99695.06
2022-09-18T04:04:24.235Z,99700.31
2022-09-18T04:07:27.951Z,99713.25
2022-09-18T04:10:33.422Z,99722.81
2022-09-18T04:13:35.927Z,99725.38
2022-09-18T04:16:39.274Z,99743.41
2022-09-18T04:19:43.992Z,99741.06
2022-09-18T04:22:46.953Z,99743.38
2022-09-18T04:25:51.577Z,99754.03
2022-09-18T04:28:54.505Z,99759.13
2022-09-18T04:31:57.409Z,99758.75
2022-09-18T04:35:00.787Z,99767.81
2022-09-18T04:38:03.570Z,99767.19
2022-09-18T04:41:06.699Z,99773.91
2022-09-18T04:44:09.304Z,99771.78
2022-09-18T04:47:12.098Z,99779.78
2022-09-18T04:50:15.240Z,99777.81
2022-09-18T04:53:35.441Z,99784.97
2022-09-18T04:56:38.479Z,99790.31
2022-09-18T04:59:41.049Z,99786.91
2022-09-18T05:02:43.913Z,99784.47
2022-09-18T05:05:48.323Z,99795.28
2022-09-18T05:08:51.822Z,99794.44
2022-09-18T05:11:54.614Z,99795.28
2022-09-18T05:14:57.688Z,99804.13
2022-09-18T05:18:02.269Z,99799.91
2022-09-18T05:21:06.646Z,99803.87
2022-09-18T05:24:09.536Z,99806.69
2022-09-18T05:27:12.434Z,99801.75
2022-09-18T05:30:15.285Z,99804.03
2022-09-18T05:33:18.912Z,99817.59
2022-09-18T05:36:21.356Z,99806.88
2022-09-18T05:39:25.018Z,99818.37
2022-09-18T05:42:31.700Z,99822.12
2022-09-18T05:45:35.229Z,99811.41
2022-09-18T05:48:38.739Z,99817.13
2022-09-18T05:51:42.441Z,99820.13
2022-09-18T05:54:45.065Z,99825.28
2022-09-18T05:57:52.109Z,99821.59
2022-09-18T06:01:01.261Z,99812.53
2022-09-18T06:04:05.155Z,99820.69
2022-09-18T06:07:17.676Z,99820.56
2022-09-18T06:10:22.931Z,99821.75
2022-09-18T06:13:25.374Z,99817.16
2022-09-18T06:16:28.743Z,99825.44
2022-09-18T06:19:31.994Z,99827.53
2022-09-18T06:22:36.661Z,99825.78
2022-09-18T06:25:39.382Z,99834.66
2022-09-18T06:28:42.858Z,99831.72
2022-09-18T06:31:45.828Z,99840.25
2022-09-18T06:34:50.591Z,99836.53
2022-09-18T06:37:53.199Z,99837.84
2022-09-18T06:40:56.343Z,99835.03
2022-09-18T06:43:59.161Z,99837.47
2022-09-18T06:47:02.554Z,99835.34
2022-09-18T06:50:08.061Z,99830.56
2022-09-18T06:53:12.825Z,99833.56
2022-09-18T06:56:16.046Z,99837.72
2022-09-18T06:59:18.982Z,99833.53
2022-09-18T07:02:21.559Z,99846.09
2022-09-18T07:05:30.658Z,99844.72
2022-09-18T07:08:33.554Z,99856.75
2022-09-18T07:11:37.461Z,99841.94
2022-09-18T07:14:39.932Z,99856.16
2022-09-18T07:17:44.061Z,99860.50
2022-09-18T07:20:46.728Z,99843.19
2022-09-18T07:23:50.771Z,99867.19
2022-09-18T07:26:53.512Z,99866.66
2022-09-18T07:29:57.139Z,99878.69
2022-09-18T07:33:02.466Z,99879.50
2022-09-18T07:36:07.146Z,99881.09
2022-09-18T07:39:10.221Z,99880.63
2022-09-18T07:42:15.181Z,99884.53
2022-09-18T07:45:21.700Z,99873.47
2022-09-18T07:48:25.496Z,99891.16
2022-09-18T07:51:28.800Z,99893.91
2022-09-18T07:54:32.381Z,99883.88
2022-09-18T07:57:35.227Z,99888.06
2022-09-18T08:00:38.686Z,99882.50
2022-09-18T08:03:41.842Z,99897.00
2022-09-18T08:06:46.748Z,99900.53
2022-09-18T08:09:50.253Z,99892.97
2022-09-18T08:12:55.650Z,99900.56
2022-09-18T08:15:58.790Z,99880.88
2022-09-18T08:19:01.865Z,99900.34
2022-09-18T08:22:05.705Z,99895.69
2022-09-18T08:25:09.057Z,99892.22
2022-09-18T08:28:11.885Z,99889.34
2022-09-18T08:31:16.485Z,99900.34
2022-09-18T08:34:19.592Z,99906.28
2022-09-18T08:37:22.041Z,99892.53
2022-09-18T08:40:42.255Z,99902.66
2022-09-18T08:43:57.086Z,99911.13
2022-09-18T08:47:10.450Z,99904.59
2022-09-18T08:50:20.266Z,99894.56
2022-09-18T08:53:32.942Z,99919.31
2022-09-18T08:56:37.372Z,99912.63
2022-09-18T08:59:54.512Z,99906.38
2022-09-18T09:03:09.352Z,99917.84
2022-09-18T09:06:21.862Z,99911.66
2022-09-18T09:09:35.680Z,99912.00
2022-09-18T09:12:47.383Z,99912.41
2022-09-18T09:15:59.333Z,99906.75
2022-09-18T09:19:08.930Z,99921.91
2022-09-18T09:22:19.824Z,99921.91
2022-09-18T09:25:43.738Z,99912.69
2022-09-18T09:28:55.604Z,99908.50
2022-09-18T09:32:04.405Z,99896.78
2022-09-18T09:35:16.469Z,99903.63
2022-09-18T09:38:41.305Z,99895.72
2022-09-18T09:41:56.140Z,99907.88
2022-09-18T09:45:25.133Z,99919.69
2022-09-18T09:48:36.558Z,99924.37
2022-09-18T09:52:08.907Z,99926.88
2022-09-18T09:55:19.116Z,99928.72
2022-09-18T09:58:37.517Z,99923.97
2022-09-18T10:01:49.474Z,99935.72
2022-09-18T10:04:59.442Z,99928.28
2022-09-18T10:08:17.506Z,99932.81
2022-09-18T10:11:21.508Z,99943.13
2022-09-18T10:14:28.085Z,99938.31
2022-09-18T10:17:36.293Z,99939.47
2022-09-18T10:20:41.541Z,99949.75
2022-09-18T10:23:47.838Z,99936.91
2022-09-18T10:26:56.102Z,99944.53
2022-09-18T10:30:00.053Z,99942.28
2022-09-18T10:33:02.971Z,99957.59
2022-09-18T10:36:28.625Z,99952.28
2022-09-18T10:39:34.727Z,99971.41
2022-09-18T10:42:38.156Z,99966.31
2022-09-18T10:45:41.856Z,99962.84
2022-09-18T10:48:46.993Z,99956.41
2022-09-18T10:52:22.675Z,99960.69
2022-09-18T10:55:27.084Z,99958.78
2022-09-18T10:58:32.570Z,99967.19
2022-09-18T11:01:36.453Z,99960.78
2022-09-18T11:04:39.161Z,99955.13
2022-09-18T11:07:51.059Z,99955.13
2022-09-18T11:11:02.441Z,99954.81
2022-09-18T11:14:16.950Z,99951.25
2022-09-18T11:17:35.092Z,99946.94
2022-09-18T11:20:47.240Z,99945.22
2022-09-18T11:24:02.487Z,99951.62
2022-09-18T11:27:22.426Z,99949.56
2022-09-18T11:30:34.638Z,99961.34
2022-09-18T11:33:44.257Z,99949.13
2022-09-18T11:36:50.283Z,99940.56
2022-09-18T11:39:59.498Z,99943.72
2022-09-18T11:43:05.601Z,99948.56
2022-09-18T11:46:45.728Z,99932.34
2022-09-18T11:50:22.213Z,99939.31
2022-09-18T11:53:51.266Z,99935.84
2022-09-18T11:56:59.722Z,99927.47
2022-09-18T12:00:15.303Z,99932.75
2022-09-18T12:03:27.798Z,99937.41
2022-09-18T12:07:02.887Z,99936.88
2022-09-18T12:10:15.374Z,99923.34
2022-09-18T12:13:30.490Z,99941.94
2022-09-18T12:17:06.224Z,99925.00
2022-09-18T12:20:27.510Z,99924.87
2022-09-18T12:23:32.174Z,99941.94
2022-09-18T12:27:03.389Z,99928.81
2022-09-18T12:30:10.295Z,99931.28
2022-09-18T12:33:16.020Z,99933.13
2022-09-18T12:36:45.328Z,99927.06
2022-09-18T12:40:22.750Z,99935.66
2022-09-18T12:43:54.594Z,99925.13
2022-09-18T12:47:05.804Z,99921.16
2022-09-18T12:50:11.835Z,99925.47
2022-09-18T12:53:23.120Z,99927.13
2022-09-18T12:56:46.657Z,99926.69
2022-09-18T13:00:07.268Z,99918.56
2022-09-18T13:03:21.891Z,99916.66
2022-09-18T13:06:37.241Z,99913.72
2022-09-18T13:09:53.378Z,99916.87
2022-09-18T13:13:04.062Z,99915.09
2022-09-18T13:16:32.017Z,99900.22
2022-09-18T13:19:53.301Z,99908.81
2022-09-18T13:22:57.349Z,99907.22
2022-09-18T13:26:02.169Z,99908.91
2022-09-18T13:29:25.794Z,99908.56
2022-09-18T13:32:36.536Z,99915.75
2022-09-18T13:35:40.067Z,99919.50
2022-09-18T13:38:45.928Z,99924.84
2022-09-18T13:41:51.706Z,99925.56
2022-09-18T13:45:00.749Z,99951.44
2022-09-18T13:48:17.675Z,99971.06
2022-09-18T13:51:29.544Z,99965.69
2022-09-18T13:54:33.748Z,99973.13
2022-09-18T13:57:37.566Z,99997.28
2022-09-18T14:00:41.748Z,99980.41
2022-09-18T14:03:44.786Z,99988.03
2022-09-18T14:06:47.447Z,99996.06
2022-09-18T14:09:58.224Z,99999.16
2022-09-18T14:13:26.870Z,99987.13
2022-09-18T14:16:38.835Z,99987.41
2022-09-18T14:19:45.036Z,99981.13
2022-09-18T14:22:48.056Z,99982.47
2022-09-18T14:25:50.766Z,99994.13
2022-09-18T14:28:54.497Z,99991.69
2022-09-18T14:31:59.535Z,99989.62
2022-09-18T14:35:24.733Z,99984.94
2022-09-18T14:38:41.054Z,99986.59
2022-09-18T14:41:44.841Z,99979.88
2022-09-18T14:44:52.529Z,99983.44
2022-09-18T14:47:56.888Z,99998.50
2022-09-18T14:51:06.692Z,99987.63
2022-09-18T14:54:21.622Z,100006.28
2022-09-18T14:57:34.393Z,100009.16
2022-09-18T15:00:38.689Z,100010.81
2022-09-18T15:03:50.391Z,100014.94
2022-09-18T15:06:54.960Z,100013.81
2022-09-18T15:10:01.371Z,100007.72
2022-09-18T15:13:08.060Z,100008.44
2022-09-18T15:16:18.602Z,99996.56
2022-09-18T15:19:21.598Z,99997.69
2022-09-18T15:22:25.111Z,100002.53
2022-09-18T15:25:32.288Z,99996.84
2022-09-18T15:28:37.989Z,99999.34
2022-09-18T15:31:40.865Z,99999.44
2022-09-18T15:34:50.528Z,100003.44
2022-09-18T15:38:03.104Z,99999.31
2022-09-18T15:41:33.570Z,100003.75
2022-09-18T15:44:59.468Z,100013.56
2022-09-18T15:48:37.157Z,100019.22
2022-09-18T15:51:40.376Z,100022.69
2022-09-18T15:55:03.318Z,100014.34
2022-09-18T15:58:19.732Z,100023.03
2022-09-18T16:01:25.970Z,100017.97
2022-09-18T16:04:34.349Z,100014.31
2022-09-18T16:07:38.554Z,100013.37
2022-09-18T16:10:44.031Z,100024.25
2022-09-18T16:13:46.567Z,100017.72
2022-09-18T16:16:49.374Z,100028.59
2022-09-18T16:19:51.935Z,100048.06
2022-09-18T16:23:03.198Z,100039.97
2022-09-18T16:26:10.866Z,100048.72
2022-09-18T16:29:19.972Z,100045.00
2022-09-18T16:32:22.547Z,100051.47
2022-09-18T16:35:25.424Z,100057.22
2022-09-18T16:38:28.420Z,100052.03
2022-09-18T16:41:32.093Z,100053.31
2022-09-18T16:44:34.607Z,100054.97
2022-09-18T16:47:44.113Z,100056.53
2022-09-18T16:50:48.150Z,100052.94
2022-09-18T16:53:50.978Z,100046.81
2022-09-18T16:57:00.140Z,100056.22
2022-09-18T17:00:07.067Z,100053.28
2022-09-18T17:03:09.853Z,100058.56
2022-09-18T17:06:15.943Z,100055.62
2022-09-18T17:09:23.033Z,100054.53
2022-09-18T17:12:25.987Z,100053.87
2022-09-18T17:15:28.976Z,100049.00
2022-09-18T17:18:31.938Z,100047.13
2022-09-18T17:21:35.800Z,100053.25
2022-09-18T17:24:38.781Z,100057.22
2022-09-18T17:27:43.912Z,100053.87
2022-09-18T17:30:47.599Z,100058.44
2022-09-18T17:33:51.472Z,100056.91
2022-09-18T17:36:54.608Z,100059.50
2022-09-18T17:39:57.647Z,100067.37
2022-09-18T17:43:00.845Z,100067.87
2022-09-18T17:46:05.726Z,100078.41
2022-09-18T17:49:08.617Z,100070.53
2022-09-18T17:52:11.119Z,100074.59
2022-09-18T17:55:13.981Z,100077.06
2022-09-18T17:58:20.137Z,100090.53
2022-09-18T18:01:23.251Z,100087.06
2022-09-18T18:04:26.243Z,100104.72
2022-09-18T18:07:28.834Z,100102.13
2022-09-18T18:10:35.486Z,100102.66
2022-09-18T18:13:39.715Z,100115.88
2022-09-18T18:16:42.723Z,100114.25
2022-09-18T18:19:45.615Z,100112.50
2022-09-18T18:22:48.350Z,100107.47
2022-09-18T18:25:50.909Z,100111.56
2022-09-18T18:28:55.497Z,100117.16
2022-09-18T18:31:58.421Z,100125.34
2022-09-18T18:35:01.377Z,100117.00
2022-09-18T18:38:04.451Z,100122.00
2022-09-18T18:41:08.411Z,100119.69
2022-09-18T18:44:11.495Z,100124.22
2022-09-18T18:47:14.349Z,100127.44
2022-09-18T18:50:18.915Z,100127.28
2022-09-18T18:53:21.705Z,100122.59
2022-09-18T18:56:24.182Z,100120.62
2022-09-18T18:59:27.382Z,100123.13
2022-09-18T19:02:32.089Z,100132.22
2022-09-18T19:05:36.088Z,100136.22
2022-09-18T19:08:38.643Z,100130.84
2022-09-18T19:11:50.353Z,100127.59
2022-09-18T19:14:53.305Z,100122.31
2022-09-18T19:17:59.198Z,100125.25
2022-09-18T19:21:02.306Z,100130.19
2022-09-18T19:24:07.846Z,100119.00
2022-09-18T19:27:10.812Z,100124.87
2022-09-18T19:30:17.731Z,100116.78
2022-09-18T19:33:22.967Z,100117.22
2022-09-18T19:36:30.608Z,100116.78
2022-09-18T19:39:33.105Z,100112.94
2022-09-18T19:42:36.452Z,100125.16
2022-09-18T19:45:39.902Z,100113.16
2022-09-18T19:48:43.419Z,100127.12
2022-09-18T19:51:46.692Z,100132.03
2022-09-18T19:54:51.236Z,100135.16
2022-09-18T19:57:56.840Z,100126.34
2022-09-18T20:01:09.439Z,100137.56
2022-09-18T20:04:12.349Z,100136.13
2022-09-18T20:07:15.290Z,100141.13
2022-09-18T20:10:24.575Z,100136.06
2022-09-18T20:13:27.311Z,100126.69
2022-09-18T20:16:30.220Z,100125.13
2022-09-18T20:19:32.795Z,100122.59
2022-09-18T20:22:38.338Z,100125.28
2022-09-18T20:25:40.933Z,100121.13
2022-09-18T20:28:44.795Z,100117.19
2022-09-18T20:31:49.970Z,100123.25
2022-09-18T20:34:53.720Z,100119.94
2022-09-18T20:37:57.438Z,100107.66
2022-09-18T20:41:06.577Z,100107.78
2022-09-18T20:44:09.973Z,100109.09
2022-09-18T20:47:12.779Z,100104.53
2022-09-18T20:50:16.446Z,100109.88
2022-09-18T20:53:21.098Z,100111.03
2022-09-18T20:56:26.342Z,100101.94
2022-09-18T20:59:29.118Z,100108.47
2022-09-18T21:02:35.323Z,100094.44
2022-09-18T21:05:42.975Z,100094.06
2022-09-18T21:08:47.497Z,100090.34
2022-09-18T21:11:50.292Z,100098.75
2022-09-18T21:14:52.796Z,100085.66
2022-09-18T21:17:55.943Z,100087.75
2022-09-18T21:21:08.109Z,100078.72
2022-09-18T21:24:11.403Z,100081.31
2022-09-18T21:27:13.910Z,100076.75
2022-09-18T21:30:26.667Z,100080.91
2022-09-18T21:33:29.169Z,100076.34
2022-09-18T21:36:38.409Z,100081.88
2022-09-18T21:39:43.580Z,100069.31
2022-09-18T21:42:47.642Z,100069.31
2022-09-18T21:45:50.150Z,100076.88
2022-09-18T21:48:54.374Z,100069.81
2022-09-18T21:51:59.575Z,100060.25
2022-09-18T21:55:02.383Z,100044.03
2022-09-18T21:58:06.888Z,100045.38
2022-09-18T22:01:15.672Z,100042.66
2022-09-18T22:04:19.983Z,100047.81
2022-09-18T22:07:24.453Z,100057.22
2022-09-18T22:10:29.414Z,100049.28
2022-09-18T22:13:32.694Z,100053.66
2022-09-18T22:16:36.738Z,100047.25
2022-09-18T22:19:41.553Z,100053.22
2022-09-18T22:23:04.357Z,100047.66
2022-09-18T22:26:06.828Z,100047.25
2022-09-18T22:29:16.476Z,100044.56
2022-09-18T22:32:19.679Z,100040.50
2022-09-18T22:35:22.450Z,100036.28
2022-09-18T22:38:25.043Z,100034.94
2022-09-18T22:41:28.044Z,100040.56
2022-09-18T22:44:31.461Z,100047.75
2022-09-18T22:47:34.252Z,100040.19
2022-09-18T22:50:39.373Z,100037.09
2022-09-18T22:53:59.889Z,100027.63
2022-09-18T22:57:02.630Z,100022.91
2022-09-18T23:00:06.972Z,100029.50
2022-09-18T23:03:10.128Z,100021.03
2022-09-18T23:06:15.591Z,100021.03
2022-09-18T23:09:19.391Z,100020.28
2022-09-18T23:12:22.166Z,100014.25
2022-09-18T23:15:24.643Z,100017.69
2022-09-18T23:18:27.544Z,100022.69
2022-09-18T23:21:32.142Z,100034.81
2022-09-18T23:24:35.081Z,100027.75
2022-09-18T23:27:37.530Z,100018.06
2022-09-18T23:30:44.705Z,100016.66
2022-09-18T23:33:50.195Z,100013.97
2022-09-18T23:36:54.745Z,100016.75
2022-09-18T23:39:57.347Z,100018.38
2022-09-18T23:43:00.352Z,100014.47
2022-09-18T23:46:04.328Z,100013.19
2022-09-18T23:49:08.451Z,99992.97
2022-09-18T23:52:11.023Z,99994.91
2022-09-18T23:55:13.894Z,100005.31
2022-09-18T23:58:17.304Z,99997.94
